Terminal Aerodrome Forecast
Issued by NWS Cleveland, OH

Home | Current Version | Previous Version | Text Only | Print | Product List | Glossary Off
Versions: 1 2 3 4 5 6 7 8 9 10 11 12 13 14 15 16 17 18 19 20 21

000
FTUS41 KCLE 190545
TAFCLE
TAF
KCLE 190545Z 1906/2012 03011KT P6SM OVC015
     FM190800 01010G20KT 4SM -SHSN OVC006
      TEMPO 1908/1910 2SM -SN OVC006
     FM191200 35012G22KT P6SM VCSH OVC007
     FM191500 34020G32KT 5SM -SHSN OVC012
     FM191900 32020G28KT P6SM BKN035
     FM192100 33015G25KT P6SM SCT045=

USA.gov is the U.S. government's official web portal to all federal, state and local government web resources and services.